Westchester, California
Current Conditions -  °F | °C
As of 7:53 AM on Tuesday 21 Oct 2014 (Local Time) from KLAX Reporting Station
Haze Haze  
Wind Chill: 65°   Ceiling: Unl
Heat Index: 65°   Visibility: 6mi
Dew Point: 61°   Wind: 3mph
Humidity: 87%   Direction: NA
Pressure: 29.92"   Gusts: NA
Location:  33.9534°N, 118.399°W
Report Text: KLAX 211453Z VRB03KT 6SM BR FEW014 SCT018 18/16 A2992 RMK AO2 SLP130 T01830161 53008
Loading
Personal Weather Stations






























Interactive Weather Map
Tropical Storm Tracking
New forecast layout! Learn more

10-Day Weather Forecast

Advertisements
Track Severe Weather on mobile